createdAt,value
2023-03-02T00:02:25.786Z,14.75
2023-03-02T00:04:58.321Z,15.20
2023-03-02T00:07:57.919Z,15.32
2023-03-02T00:10:26.160Z,15.57
2023-03-02T00:12:55.165Z,16.20
2023-03-02T00:15:25.676Z,14.73
2023-03-02T00:17:52.705Z,16.08
2023-03-02T00:20:21.941Z,14.82
2023-03-02T00:22:52.478Z,15.00
2023-03-02T00:25:25.288Z,14.77
2023-03-02T00:27:57.558Z,14.15
2023-03-02T00:30:26.154Z,15.43
2023-03-02T00:32:52.999Z,15.20
2023-03-02T00:35:23.494Z,14.40
2023-03-02T00:37:52.297Z,13.43
2023-03-02T00:40:19.059Z,14.60
2023-03-02T00:42:51.277Z,14.13
2023-03-02T00:45:18.145Z,14.73
2023-03-02T00:47:48.118Z,15.50
2023-03-02T00:50:14.739Z,14.77
2023-03-02T00:52:41.541Z,15.70
2023-03-02T00:55:10.054Z,14.05
2023-03-02T00:57:37.048Z,15.40
2023-03-02T01:00:05.270Z,14.25
2023-03-02T01:02:43.431Z,15.50
2023-03-02T01:05:14.485Z,16.23
2023-03-02T01:07:41.439Z,15.18
2023-03-02T01:10:13.473Z,15.80
2023-03-02T01:12:44.898Z,15.85
2023-03-02T01:15:18.532Z,15.25
2023-03-02T01:17:49.870Z,15.38
2023-03-02T01:20:17.182Z,16.65
2023-03-02T01:22:44.639Z,14.32
2023-03-02T01:25:22.654Z,15.43
2023-03-02T01:27:49.450Z,16.08
2023-03-02T01:30:18.884Z,17.23
2023-03-02T01:32:45.872Z,14.10
2023-03-02T01:35:13.915Z,15.52
2023-03-02T01:37:43.067Z,16.25
2023-03-02T01:40:12.591Z,15.57
2023-03-02T01:42:53.756Z,15.70
2023-03-02T01:45:53.618Z,16.42
2023-03-02T01:48:50.393Z,16.02
2023-03-02T01:55:47.791Z,14.18
2023-03-02T01:58:18.652Z,14.85
2023-03-02T02:00:46.125Z,16.35
2023-03-02T02:03:24.787Z,15.88
2023-03-02T02:06:24.074Z,15.55
2023-03-02T02:08:57.830Z,15.73
2023-03-02T02:11:26.666Z,14.82
2023-03-02T02:13:57.186Z,14.95
2023-03-02T02:16:25.819Z,15.93
2023-03-02T02:18:52.784Z,16.70
2023-03-02T02:21:21.336Z,15.35
2023-03-02T02:24:12.441Z,15.55
2023-03-02T02:26:47.783Z,15.73
2023-03-02T02:29:44.830Z,15.55
2023-03-02T02:32:25.636Z,16.77
2023-03-02T02:35:05.718Z,14.82
2023-03-02T02:37:35.115Z,15.82
2023-03-02T02:40:08.866Z,14.63
2023-03-02T02:42:41.378Z,15.57
2023-03-02T02:45:25.837Z,15.70
2023-03-02T02:47:55.325Z,16.42
2023-03-02T02:50:29.684Z,15.00
2023-03-02T02:53:03.925Z,17.08
2023-03-02T02:55:35.056Z,16.67
2023-03-02T02:58:09.231Z,16.20
2023-03-02T03:00:36.674Z,15.82
2023-03-02T03:03:28.821Z,15.35
2023-03-02T03:06:02.754Z,16.15
2023-03-02T03:09:06.853Z,16.80
2023-03-02T03:11:48.834Z,16.55
2023-03-02T03:14:39.891Z,16.13
2023-03-02T03:17:12.129Z,16.63
2023-03-02T03:19:47.064Z,15.68
2023-03-02T03:22:15.839Z,15.63
2023-03-02T03:24:49.305Z,18.17
2023-03-02T03:27:21.380Z,24.23
2023-03-02T03:29:54.919Z,17.52
2023-03-02T03:32:25.138Z,17.10
2023-03-02T03:34:55.765Z,16.42
2023-03-02T03:37:30.165Z,16.50
2023-03-02T03:39:56.912Z,18.25
2023-03-02T03:42:23.881Z,16.60
2023-03-02T03:44:54.022Z,17.95
2023-03-02T03:47:46.152Z,14.73
2023-03-02T03:50:17.272Z,16.42
2023-03-02T03:52:44.371Z,17.00
2023-03-02T03:55:19.303Z,17.17
2023-03-02T03:57:50.018Z,16.23
2023-03-02T04:00:21.540Z,16.80
2023-03-02T04:03:05.134Z,16.30
2023-03-02T04:08:08.502Z,16.13
2023-03-02T04:10:35.644Z,15.80
2023-03-02T04:13:04.603Z,17.15
2023-03-02T04:15:31.702Z,15.85
2023-03-02T04:18:01.663Z,14.65
2023-03-02T04:20:29.862Z,15.93
2023-03-02T04:23:02.476Z,16.35
2023-03-02T04:25:32.436Z,16.23
2023-03-02T04:28:11.574Z,16.90
2023-03-02T04:30:40.542Z,16.35
2023-03-02T04:33:07.616Z,17.45
2023-03-02T04:35:38.284Z,17.08
2023-03-02T04:38:07.712Z,17.00
2023-03-02T04:40:36.531Z,17.35
2023-03-02T04:43:05.568Z,17.35
2023-03-02T04:45:32.540Z,15.38
2023-03-02T04:48:01.681Z,17.05
2023-03-02T04:50:33.025Z,15.63
2023-03-02T04:53:05.883Z,17.83
2023-03-02T04:55:32.820Z,17.05
2023-03-02T04:57:59.407Z,17.85
2023-03-02T05:00:28.065Z,16.80
2023-03-02T05:03:02.864Z,20.77
2023-03-02T05:05:32.324Z,18.38
2023-03-02T05:08:01.894Z,17.67
2023-03-02T05:10:29.149Z,18.00
2023-03-02T05:13:01.832Z,17.42
2023-03-02T05:18:09.081Z,16.55
2023-03-02T05:20:40.109Z,18.08
2023-03-02T05:23:26.413Z,17.33
2023-03-02T05:26:06.768Z,22.80
2023-03-02T05:29:05.954Z,18.27
2023-03-02T05:31:40.900Z,18.13
2023-03-02T05:34:59.789Z,16.48
2023-03-02T05:37:28.815Z,16.67
2023-03-02T05:40:01.426Z,17.75
2023-03-02T05:42:35.329Z,16.27
2023-03-02T05:45:05.623Z,18.10
2023-03-02T05:47:35.092Z,22.55
2023-03-02T05:50:02.679Z,23.58
2023-03-02T05:52:29.376Z,21.15
2023-03-02T05:54:59.517Z,23.27
2023-03-02T05:57:29.963Z,29.52
2023-03-02T05:59:57.029Z,23.58
2023-03-02T06:02:31.652Z,25.70
2023-03-02T06:05:01.438Z,24.95
2023-03-02T06:07:29.154Z,21.83
2023-03-02T06:09:58.574Z,18.85
2023-03-02T06:12:25.376Z,17.63
2023-03-02T06:14:53.380Z,18.67
2023-03-02T06:17:23.730Z,17.27
2023-03-02T06:19:51.551Z,18.00
2023-03-02T06:22:18.765Z,17.60
2023-03-02T06:24:45.521Z,19.10
2023-03-02T06:27:13.546Z,20.80
2023-03-02T06:29:57.455Z,17.50
2023-03-02T06:32:26.706Z,18.35
2023-03-02T06:34:59.251Z,19.83
2023-03-02T06:37:32.264Z,17.15
2023-03-02T06:40:09.436Z,17.92
2023-03-02T06:42:42.148Z,16.77
2023-03-02T06:45:11.792Z,18.20
2023-03-02T06:47:45.070Z,16.48
2023-03-02T06:50:16.210Z,17.15
2023-03-02T06:53:34.570Z,15.48
2023-03-02T06:56:05.204Z,17.77
2023-03-02T06:58:34.472Z,15.30
2023-03-02T07:01:05.181Z,17.33
2023-03-02T07:03:35.330Z,15.45
2023-03-02T07:06:04.954Z,16.52
2023-03-02T07:08:34.127Z,16.67
2023-03-02T07:11:30.641Z,16.98
2023-03-02T07:16:46.691Z,16.23
2023-03-02T07:19:14.698Z,15.93
2023-03-02T07:21:41.958Z,15.38
2023-03-02T07:24:08.736Z,15.88
2023-03-02T07:26:38.909Z,16.08
2023-03-02T07:29:07.003Z,15.57
2023-03-02T07:31:35.390Z,16.67
2023-03-02T07:34:02.234Z,15.45
2023-03-02T07:36:32.736Z,15.88
2023-03-02T07:39:01.675Z,16.17
2023-03-02T07:41:31.227Z,15.63
2023-03-02T07:43:59.742Z,16.02
2023-03-02T07:46:28.546Z,14.63
2023-03-02T07:48:55.162Z,16.88
2023-03-02T07:51:21.887Z,16.77
2023-03-02T07:53:48.488Z,15.77
2023-03-02T07:56:15.218Z,15.90
2023-03-02T07:58:47.270Z,16.73
2023-03-02T08:01:20.239Z,15.18
2023-03-02T08:03:48.043Z,15.50
2023-03-02T08:06:17.376Z,16.35
2023-03-02T08:08:44.110Z,14.95
2023-03-02T08:11:13.923Z,14.65
2023-03-02T08:16:32.092Z,16.80
2023-03-02T08:19:00.031Z,16.27
2023-03-02T08:21:58.676Z,14.75
2023-03-02T08:24:25.596Z,15.48
2023-03-02T08:26:54.164Z,14.27
2023-03-02T08:29:21.232Z,14.68
2023-03-02T08:31:51.167Z,14.30
2023-03-02T08:34:18.200Z,15.13
2023-03-02T08:36:45.226Z,14.05
2023-03-02T08:39:12.191Z,14.25
2023-03-02T08:41:40.904Z,16.13
2023-03-02T08:44:10.022Z,14.38
2023-03-02T08:46:37.872Z,13.98
2023-03-02T08:49:04.524Z,14.13
2023-03-02T08:51:31.586Z,14.52
2023-03-02T08:54:01.815Z,14.63
2023-03-02T08:56:43.592Z,14.60
2023-03-02T08:59:12.660Z,13.88
2023-03-02T09:01:41.334Z,15.27
2023-03-02T09:04:09.760Z,15.73
2023-03-02T09:06:42.273Z,14.52
2023-03-02T09:09:13.302Z,15.25
2023-03-02T09:11:44.087Z,14.82
2023-03-02T09:14:16.312Z,13.02
2023-03-02T09:16:46.318Z,15.23
2023-03-02T09:19:13.585Z,14.95
2023-03-02T09:21:42.996Z,17.40
2023-03-02T09:24:35.206Z,15.38
2023-03-02T09:27:03.184Z,13.90
2023-03-02T09:29:29.896Z,14.52
2023-03-02T09:31:56.626Z,14.30
2023-03-02T09:34:23.484Z,13.55
2023-03-02T09:37:11.286Z,15.23
2023-03-02T09:39:46.363Z,13.40
2023-03-02T09:42:13.092Z,14.43
2023-03-02T09:44:39.949Z,13.10
2023-03-02T09:47:45.619Z,13.38
2023-03-02T09:50:29.647Z,13.32
2023-03-02T09:53:23.319Z,13.95
2023-03-02T09:55:58.500Z,13.65
2023-03-02T09:58:33.320Z,13.88
2023-03-02T10:01:09.444Z,12.40
2023-03-02T10:03:44.458Z,13.02
2023-03-02T10:06:12.381Z,13.15
2023-03-02T10:08:40.273Z,14.48
2023-03-02T10:11:22.788Z,14.68
2023-03-02T10:14:14.455Z,13.60
2023-03-02T10:17:17.550Z,13.18
2023-03-02T10:19:52.358Z,12.90
2023-03-02T10:22:43.897Z,13.90
2023-03-02T10:25:35.360Z,13.23
2023-03-02T10:28:18.217Z,14.20
2023-03-02T10:33:16.460Z,13.10
2023-03-02T10:35:49.108Z,13.35
2023-03-02T10:38:22.414Z,13.57
2023-03-02T10:40:59.347Z,12.50
2023-03-02T10:43:59.050Z,13.95
2023-03-02T10:46:26.404Z,13.40
2023-03-02T10:49:00.635Z,13.02
2023-03-02T10:51:37.408Z,13.70
2023-03-02T10:54:16.227Z,12.98
2023-03-02T10:56:49.584Z,11.25
2023-03-02T10:59:42.886Z,14.10
2023-03-02T11:03:34.966Z,12.13
2023-03-02T11:06:22.610Z,12.52
2023-03-02T11:09:07.469Z,13.35
2023-03-02T11:11:37.965Z,14.13
2023-03-02T11:14:15.222Z,13.15
2023-03-02T11:16:46.589Z,15.00
2023-03-02T11:19:18.644Z,12.95
2023-03-02T11:22:26.731Z,13.80
2023-03-02T11:24:59.584Z,14.05
2023-03-02T11:30:00.807Z,12.13
2023-03-02T11:32:44.330Z,13.30
2023-03-02T11:35:39.541Z,13.23
2023-03-02T11:38:21.502Z,12.32
2023-03-02T11:40:58.007Z,13.30
2023-03-02T11:43:25.294Z,13.23
2023-03-02T11:46:05.089Z,13.00
2023-03-02T11:48:42.567Z,13.27
2023-03-02T11:51:17.806Z,12.85
2023-03-02T11:53:53.602Z,13.02
2023-03-02T11:56:24.480Z,13.13
2023-03-02T11:58:59.509Z,13.13
2023-03-02T12:01:39.667Z,13.57
2023-03-02T12:04:37.123Z,13.63
2023-03-02T12:07:20.546Z,11.68
2023-03-02T12:09:56.750Z,12.52
2023-03-02T12:12:34.618Z,13.05
2023-03-02T12:15:02.375Z,12.55
2023-03-02T12:17:32.668Z,13.00
2023-03-02T12:20:20.588Z,13.27
2023-03-02T12:22:47.399Z,12.60
2023-03-02T12:25:21.455Z,13.07
2023-03-02T12:27:59.622Z,13.43
2023-03-02T12:30:27.833Z,12.55
2023-03-02T12:33:20.827Z,13.32
2023-03-02T12:35:51.196Z,13.60
2023-03-02T12:38:41.488Z,13.07
2023-03-02T12:41:16.864Z,12.50
2023-03-02T12:44:26.669Z,12.50
2023-03-02T12:46:59.219Z,12.45
2023-03-02T12:49:47.574Z,12.95
2023-03-02T12:52:41.758Z,13.00
2023-03-02T12:55:10.587Z,12.98
2023-03-02T12:58:01.183Z,13.98
2023-03-02T13:00:32.646Z,12.93
2023-03-02T13:03:01.601Z,14.18
2023-03-02T13:05:34.857Z,13.73
2023-03-02T13:08:05.604Z,13.82
2023-03-02T13:11:00.619Z,13.48
2023-03-02T13:13:40.977Z,13.20
2023-03-02T13:16:30.692Z,13.23
2023-03-02T13:19:04.666Z,14.25
2023-03-02T13:22:02.411Z,13.80
2023-03-02T13:24:46.732Z,13.00
2023-03-02T13:27:19.999Z,13.48
2023-03-02T13:29:52.125Z,13.65
2023-03-02T13:32:21.631Z,14.43
2023-03-02T13:34:53.559Z,13.93
2023-03-02T13:37:42.947Z,13.18
2023-03-02T13:40:23.536Z,13.20
2023-03-02T13:42:50.555Z,13.27
2023-03-02T13:45:24.711Z,13.00
2023-03-02T13:47:57.645Z,13.82
2023-03-02T13:50:32.695Z,13.70
2023-03-02T13:53:04.650Z,14.07
2023-03-02T13:55:34.605Z,14.55
2023-03-02T13:58:01.894Z,13.73
2023-03-02T14:00:32.880Z,13.55
2023-03-02T14:03:02.048Z,13.77
2023-03-02T14:05:33.876Z,13.25
2023-03-02T14:08:06.481Z,13.70
2023-03-02T14:13:12.887Z,13.50
2023-03-02T14:15:42.482Z,12.95
2023-03-02T14:18:39.777Z,12.82
2023-03-02T14:21:27.157Z,12.35
2023-03-02T14:23:59.869Z,12.50
2023-03-02T14:26:42.814Z,13.82
2023-03-02T14:29:31.752Z,12.02
2023-03-02T14:32:02.480Z,12.30
2023-03-02T14:34:29.266Z,12.85
2023-03-02T14:37:02.468Z,12.75
2023-03-02T14:39:32.175Z,11.93
2023-03-02T14:42:02.827Z,11.50
2023-03-02T14:44:29.537Z,13.13
2023-03-02T14:46:59.279Z,12.55
2023-03-02T14:49:27.828Z,12.27
2023-03-02T14:52:03.412Z,12.18
2023-03-02T14:54:43.804Z,11.80
2023-03-02T14:57:28.152Z,11.93
2023-03-02T14:59:59.212Z,12.15
2023-03-02T15:02:34.996Z,12.40
2023-03-02T15:05:04.474Z,10.55
2023-03-02T15:07:33.919Z,11.88
2023-03-02T15:10:00.617Z,11.95
2023-03-02T15:12:39.945Z,12.80
2023-03-02T15:15:09.735Z,11.98
2023-03-02T15:17:36.531Z,13.48
2023-03-02T15:20:12.570Z,14.27
2023-03-02T15:22:40.845Z,13.35
2023-03-02T15:25:09.301Z,14.05
2023-03-02T15:27:46.946Z,12.02
2023-03-02T15:30:13.775Z,13.43
2023-03-02T15:33:06.202Z,13.68
2023-03-02T15:35:35.892Z,14.30
2023-03-02T15:38:34.079Z,21.25
2023-03-02T15:42:23.432Z,16.30
2023-03-02T15:45:15.908Z,13.20
2023-03-02T15:47:42.596Z,13.00
2023-03-02T15:50:13.997Z,14.45
2023-03-02T15:52:43.829Z,17.17
2023-03-02T15:55:14.000Z,16.50
2023-03-02T15:57:43.261Z,15.13
2023-03-02T16:00:13.554Z,15.07
2023-03-02T16:02:42.271Z,15.77
2023-03-02T16:05:10.901Z,14.75
2023-03-02T16:07:40.524Z,14.23
2023-03-02T16:10:14.599Z,14.40
2023-03-02T16:12:46.836Z,13.98
2023-03-02T16:15:13.748Z,14.13
2023-03-02T16:17:45.255Z,14.55
2023-03-02T16:20:19.106Z,14.88
2023-03-02T16:22:45.776Z,15.55
2023-03-02T16:25:15.975Z,14.45
2023-03-02T16:27:46.796Z,16.92
2023-03-02T16:30:15.318Z,15.82
2023-03-02T16:32:42.575Z,16.40
2023-03-02T16:35:12.015Z,15.93
2023-03-02T16:37:38.805Z,15.23
2023-03-02T16:40:09.045Z,16.75
2023-03-02T16:42:42.911Z,16.77
2023-03-02T16:45:10.437Z,14.73
2023-03-02T16:47:38.248Z,15.25
2023-03-02T16:50:06.288Z,14.55
2023-03-02T16:52:35.031Z,14.57
2023-03-02T16:55:02.088Z,14.65
2023-03-02T16:57:29.112Z,13.63
2023-03-02T17:00:01.994Z,13.60
2023-03-02T17:02:29.432Z,15.30
2023-03-02T17:04:57.134Z,14.25
2023-03-02T17:07:51.918Z,14.00
2023-03-02T17:10:46.603Z,14.88
2023-03-02T17:13:16.667Z,14.70
2023-03-02T17:15:43.688Z,14.30
2023-03-02T17:18:10.910Z,14.35
2023-03-02T17:20:38.125Z,15.77
2023-03-02T17:23:05.087Z,17.13
2023-03-02T17:25:35.097Z,16.73
2023-03-02T17:28:01.952Z,15.98
2023-03-02T17:30:36.272Z,15.68
2023-03-02T17:33:06.219Z,14.88
2023-03-02T17:35:32.940Z,16.05
2023-03-02T17:38:00.128Z,16.52
2023-03-02T17:40:30.670Z,16.80
2023-03-02T17:42:57.921Z,18.58
2023-03-02T17:45:29.997Z,18.90
2023-03-02T17:47:58.949Z,16.05
2023-03-02T17:50:26.910Z,15.88
2023-03-02T17:52:54.853Z,19.13
2023-03-02T17:55:24.628Z,20.45
2023-03-02T17:57:53.918Z,18.48
2023-03-02T18:00:24.902Z,17.08
2023-03-02T18:02:52.757Z,17.58
2023-03-02T18:05:22.700Z,19.00
2023-03-02T18:07:52.107Z,18.17
2023-03-02T18:10:19.847Z,18.25
2023-03-02T18:12:52.345Z,18.17
2023-03-02T18:15:21.498Z,17.05
2023-03-02T18:17:50.458Z,17.00
2023-03-02T18:20:18.360Z,16.33
2023-03-02T18:22:45.013Z,17.10
2023-03-02T18:25:11.912Z,17.15
2023-03-02T18:27:38.683Z,20.52
2023-03-02T18:30:06.930Z,17.52
2023-03-02T18:32:35.149Z,18.00
2023-03-02T18:35:01.999Z,18.20
2023-03-02T18:37:33.109Z,19.15
2023-03-02T18:40:05.832Z,19.23
2023-03-02T18:45:03.019Z,18.02
2023-03-02T18:47:34.117Z,17.98
2023-03-02T18:50:01.006Z,18.70
2023-03-02T18:52:27.702Z,18.38
2023-03-02T18:55:16.378Z,19.45
2023-03-02T18:57:45.369Z,21.77
2023-03-02T19:00:18.894Z,19.50
2023-03-02T19:02:49.248Z,19.95
2023-03-02T19:05:20.893Z,27.60
2023-03-02T19:07:50.193Z,23.30
2023-03-02T19:10:17.331Z,22.52
2023-03-02T19:12:45.841Z,20.83
2023-03-02T19:15:13.037Z,20.30
2023-03-02T19:17:41.961Z,20.48
2023-03-02T19:20:29.314Z,19.15
2023-03-02T19:22:59.317Z,18.90
2023-03-02T19:25:26.032Z,18.48
2023-03-02T19:27:53.234Z,26.70
2023-03-02T19:30:45.607Z,22.98
2023-03-02T19:39:04.400Z,19.88
2023-03-02T19:41:33.696Z,19.27
2023-03-02T19:44:01.562Z,19.52
2023-03-02T19:46:33.238Z,19.30
2023-03-02T19:48:59.895Z,17.67
2023-03-02T19:51:28.984Z,18.45
2023-03-02T19:53:57.765Z,17.90
2023-03-02T19:56:31.962Z,18.20
2023-03-02T20:01:54.395Z,19.30
2023-03-02T20:04:23.637Z,17.83
2023-03-02T20:07:06.327Z,19.33
2023-03-02T20:09:33.177Z,16.23
2023-03-02T20:12:02.150Z,17.33
2023-03-02T20:14:34.087Z,18.92
2023-03-02T20:17:12.607Z,18.17
2023-03-02T20:19:39.339Z,17.73
2023-03-02T20:22:06.150Z,19.30
2023-03-02T20:24:33.975Z,18.02
2023-03-02T20:27:02.239Z,18.45
2023-03-02T20:29:29.397Z,19.65
2023-03-02T20:31:57.269Z,19.30
2023-03-02T20:34:25.043Z,20.80
2023-03-02T20:36:51.882Z,19.55
2023-03-02T20:39:25.958Z,19.00
2023-03-02T20:41:54.587Z,19.52
2023-03-02T20:44:23.119Z,20.65
2023-03-02T20:47:00.313Z,21.35
2023-03-02T20:49:29.441Z,23.75
2023-03-02T20:51:59.367Z,23.85
2023-03-02T20:54:30.681Z,23.08
2023-03-02T20:57:01.183Z,22.15
2023-03-02T20:59:28.370Z,21.05
2023-03-02T21:01:56.462Z,21.58
2023-03-02T21:04:29.367Z,22.08
2023-03-02T21:06:58.620Z,28.77
2023-03-02T21:09:27.727Z,27.70
2023-03-02T21:11:58.722Z,22.90
2023-03-02T21:14:29.070Z,21.95
2023-03-02T21:16:57.782Z,22.02
2023-03-02T21:19:25.285Z,21.15
2023-03-02T21:21:55.009Z,21.27
2023-03-02T21:24:22.045Z,22.35
2023-03-02T21:26:51.969Z,19.25
2023-03-02T21:29:20.934Z,20.85
2023-03-02T21:31:48.001Z,21.55
2023-03-02T21:34:15.475Z,21.95
2023-03-02T21:36:45.976Z,22.10
2023-03-02T21:39:13.281Z,24.00
2023-03-02T21:41:40.028Z,23.75
2023-03-02T21:44:09.272Z,33.25
2023-03-02T21:46:37.318Z,31.77
2023-03-02T21:49:06.726Z,35.17
2023-03-02T21:51:34.508Z,35.78
2023-03-02T21:54:03.800Z,27.98
2023-03-02T21:56:33.444Z,27.95
2023-03-02T21:59:00.657Z,25.35
2023-03-02T22:01:32.029Z,22.95
2023-03-02T22:04:01.465Z,26.77
2023-03-02T22:06:33.982Z,25.48
2023-03-02T22:09:01.207Z,27.55
2023-03-02T22:11:32.436Z,25.10
2023-03-02T22:14:02.833Z,23.90
2023-03-02T22:16:40.051Z,22.75
2023-03-02T22:19:24.392Z,21.85
2023-03-02T22:21:53.109Z,25.55
2023-03-02T22:24:30.700Z,26.20
2023-03-02T22:27:18.994Z,26.23
2023-03-02T22:29:46.736Z,21.85
2023-03-02T22:32:19.222Z,21.60
2023-03-02T22:34:48.595Z,20.77
2023-03-02T22:37:32.866Z,17.27
2023-03-02T22:40:22.513Z,18.00
2023-03-02T22:42:56.002Z,19.10
2023-03-02T22:45:22.708Z,25.13
2023-03-02T22:47:52.693Z,23.27
2023-03-02T22:50:24.909Z,21.30
2023-03-02T22:52:56.871Z,18.80
2023-03-02T22:55:44.480Z,21.65
2023-03-02T22:58:23.386Z,20.45
2023-03-02T23:00:50.431Z,19.40
2023-03-02T23:03:19.098Z,17.35
2023-03-02T23:05:50.982Z,18.88
2023-03-02T23:08:27.920Z,14.38
2023-03-02T23:10:57.816Z,18.52
2023-03-02T23:13:37.835Z,17.63
2023-03-02T23:16:20.576Z,17.20
2023-03-02T23:19:17.357Z,17.13
2023-03-02T23:21:50.392Z,14.80
2023-03-02T23:24:21.259Z,16.30
2023-03-02T23:33:08.121Z,16.15
2023-03-02T23:35:41.668Z,17.35
2023-03-02T23:38:08.357Z,16.20
2023-03-02T23:40:40.820Z,17.33
2023-03-02T23:46:02.820Z,16.13
2023-03-02T23:48:29.633Z,16.65
2023-03-02T23:50:56.766Z,16.23
2023-03-02T23:53:23.658Z,15.75
2023-03-02T23:55:52.795Z,16.15
2023-03-02T23:58:20.176Z,18.58
